sensor_id;sensor_type;location;lat;lon;timestamp;P1;durP1;ratioP1;P2;durP2;ratioP2
24273;SDS011;12392;42.678;23.380;2023-04-22T00:02:03;9.88;;;5.78;;
24273;SDS011;12392;42.678;23.380;2023-04-22T00:04:28;7.85;;;5.38;;
24273;SDS011;12392;42.678;23.380;2023-04-22T00:06:54;10.05;;;6.00;;
24273;SDS011;12392;42.678;23.380;2023-04-22T00:09:21;12.73;;;6.20;;
24273;SDS011;12392;42.678;23.380;2023-04-22T00:11:46;9.68;;;5.45;;
24273;SDS011;12392;42.678;23.380;2023-04-22T00:14:12;13.45;;;5.68;;
24273;SDS011;12392;42.678;23.380;2023-04-22T00:16:38;7.82;;;5.43;;
24273;SDS011;12392;42.678;23.380;2023-04-22T00:19:04;6.93;;;5.13;;
24273;SDS011;12392;42.678;23.380;2023-04-22T00:21:30;14.63;;;5.22;;
24273;SDS011;12392;42.678;23.380;2023-04-22T00:23:56;8.30;;;5.88;;
24273;SDS011;12392;42.678;23.380;2023-04-22T00:26:22;10.77;;;5.18;;
24273;SDS011;12392;42.678;23.380;2023-04-22T00:28:48;7.43;;;5.25;;
24273;SDS011;12392;42.678;23.380;2023-04-22T00:31:14;7.22;;;5.25;;
24273;SDS011;12392;42.678;23.380;2023-04-22T00:33:40;12.85;;;6.47;;
24273;SDS011;12392;42.678;23.380;2023-04-22T00:36:05;9.63;;;5.35;;
24273;SDS011;12392;42.678;23.380;2023-04-22T00:38:31;11.52;;;5.95;;
24273;SDS011;12392;42.678;23.380;2023-04-22T00:40:57;13.52;;;7.78;;
24273;SDS011;12392;42.678;23.380;2023-04-22T00:43:23;14.63;;;8.52;;
24273;SDS011;12392;42.678;23.380;2023-04-22T00:45:49;18.17;;;10.20;;
24273;SDS011;12392;42.678;23.380;2023-04-22T00:48:14;19.40;;;10.43;;
24273;SDS011;12392;42.678;23.380;2023-04-22T00:50:40;25.25;;;11.02;;
24273;SDS011;12392;42.678;23.380;2023-04-22T00:53:06;23.67;;;11.95;;
24273;SDS011;12392;42.678;23.380;2023-04-22T00:55:32;23.77;;;11.23;;
24273;SDS011;12392;42.678;23.380;2023-04-22T00:57:58;22.30;;;12.10;;
24273;SDS011;12392;42.678;23.380;2023-04-22T01:00:25;27.75;;;11.45;;
24273;SDS011;12392;42.678;23.380;2023-04-22T01:02:54;20.60;;;11.38;;
24273;SDS011;12392;42.678;23.380;2023-04-22T01:05:21;20.10;;;11.02;;
24273;SDS011;12392;42.678;23.380;2023-04-22T01:07:48;29.38;;;12.20;;
24273;SDS011;12392;42.678;23.380;2023-04-22T01:10:15;21.38;;;12.23;;
24273;SDS011;12392;42.678;23.380;2023-04-22T01:12:42;18.33;;;10.95;;
24273;SDS011;12392;42.678;23.380;2023-04-22T01:15:07;20.77;;;12.27;;
24273;SDS011;12392;42.678;23.380;2023-04-22T01:17:34;20.38;;;11.80;;
24273;SDS011;12392;42.678;23.380;2023-04-22T01:20:00;22.00;;;11.15;;
24273;SDS011;12392;42.678;23.380;2023-04-22T01:22:28;22.42;;;11.70;;
24273;SDS011;12392;42.678;23.380;2023-04-22T01:25:01;20.17;;;11.43;;
24273;SDS011;12392;42.678;23.380;2023-04-22T01:27:27;23.77;;;11.20;;
24273;SDS011;12392;42.678;23.380;2023-04-22T01:29:53;22.92;;;12.13;;
24273;SDS011;12392;42.678;23.380;2023-04-22T01:32:19;25.30;;;12.38;;
24273;SDS011;12392;42.678;23.380;2023-04-22T01:34:45;23.35;;;11.10;;
24273;SDS011;12392;42.678;23.380;2023-04-22T01:37:10;18.17;;;11.02;;
24273;SDS011;12392;42.678;23.380;2023-04-22T01:39:36;20.50;;;11.00;;
24273;SDS011;12392;42.678;23.380;2023-04-22T01:42:02;20.98;;;11.40;;
24273;SDS011;12392;42.678;23.380;2023-04-22T01:44:27;17.83;;;10.55;;
24273;SDS011;12392;42.678;23.380;2023-04-22T01:46:53;18.17;;;11.05;;
24273;SDS011;12392;42.678;23.380;2023-04-22T01:49:19;16.58;;;10.20;;
24273;SDS011;12392;42.678;23.380;2023-04-22T01:51:45;17.33;;;10.93;;
24273;SDS011;12392;42.678;23.380;2023-04-22T01:54:11;18.27;;;10.20;;
24273;SDS011;12392;42.678;23.380;2023-04-22T01:56:36;16.73;;;11.05;;
24273;SDS011;12392;42.678;23.380;2023-04-22T01:59:04;19.05;;;10.48;;
24273;SDS011;12392;42.678;23.380;2023-04-22T02:01:30;19.02;;;10.35;;
24273;SDS011;12392;42.678;23.380;2023-04-22T02:03:56;13.38;;;9.70;;
24273;SDS011;12392;42.678;23.380;2023-04-22T02:06:22;16.23;;;9.73;;
24273;SDS011;12392;42.678;23.380;2023-04-22T02:08:47;18.88;;;10.55;;
24273;SDS011;12392;42.678;23.380;2023-04-22T02:11:14;19.13;;;10.40;;
24273;SDS011;12392;42.678;23.380;2023-04-22T02:13:40;20.17;;;11.02;;
24273;SDS011;12392;42.678;23.380;2023-04-22T02:16:06;18.48;;;10.43;;
24273;SDS011;12392;42.678;23.380;2023-04-22T02:18:31;14.57;;;9.52;;
24273;SDS011;12392;42.678;23.380;2023-04-22T02:20:57;16.95;;;9.98;;
24273;SDS011;12392;42.678;23.380;2023-04-22T02:23:23;20.33;;;10.30;;
24273;SDS011;12392;42.678;23.380;2023-04-22T02:25:49;16.42;;;10.55;;
24273;SDS011;12392;42.678;23.380;2023-04-22T02:28:16;15.77;;;9.85;;
24273;SDS011;12392;42.678;23.380;2023-04-22T02:30:42;12.50;;;8.88;;
24273;SDS011;12392;42.678;23.380;2023-04-22T02:33:08;20.48;;;8.88;;
24273;SDS011;12392;42.678;23.380;2023-04-22T02:35:34;14.48;;;8.82;;
24273;SDS011;12392;42.678;23.380;2023-04-22T02:38:00;17.10;;;10.18;;
24273;SDS011;12392;42.678;23.380;2023-04-22T02:40:25;17.75;;;9.10;;
24273;SDS011;12392;42.678;23.380;2023-04-22T02:42:51;16.52;;;10.18;;
24273;SDS011;12392;42.678;23.380;2023-04-22T02:45:17;16.52;;;9.73;;
24273;SDS011;12392;42.678;23.380;2023-04-22T02:47:42;17.42;;;9.82;;
24273;SDS011;12392;42.678;23.380;2023-04-22T02:50:08;17.20;;;10.02;;
24273;SDS011;12392;42.678;23.380;2023-04-22T02:52:34;13.23;;;9.35;;
24273;SDS011;12392;42.678;23.380;2023-04-22T02:55:00;17.77;;;9.93;;
24273;SDS011;12392;42.678;23.380;2023-04-22T02:57:26;15.35;;;10.20;;
24273;SDS011;12392;42.678;23.380;2023-04-22T02:59:52;14.90;;;9.10;;
24273;SDS011;12392;42.678;23.380;2023-04-22T03:02:17;15.68;;;9.90;;
24273;SDS011;12392;42.678;23.380;2023-04-22T03:04:43;17.48;;;9.90;;
24273;SDS011;12392;42.678;23.380;2023-04-22T03:07:09;15.55;;;9.40;;
24273;SDS011;12392;42.678;23.380;2023-04-22T03:09:35;19.42;;;9.63;;
24273;SDS011;12392;42.678;23.380;2023-04-22T03:12:01;16.98;;;9.65;;
24273;SDS011;12392;42.678;23.380;2023-04-22T03:14:27;16.75;;;9.48;;
24273;SDS011;12392;42.678;23.380;2023-04-22T03:16:53;13.60;;;8.95;;
24273;SDS011;12392;42.678;23.380;2023-04-22T03:19:19;12.95;;;9.10;;
24273;SDS011;12392;42.678;23.380;2023-04-22T03:21:44;16.85;;;8.57;;
24273;SDS011;12392;42.678;23.380;2023-04-22T03:24:10;15.27;;;8.55;;
24273;SDS011;12392;42.678;23.380;2023-04-22T03:26:36;15.82;;;8.52;;
24273;SDS011;12392;42.678;23.380;2023-04-22T03:29:02;14.70;;;8.13;;
24273;SDS011;12392;42.678;23.380;2023-04-22T03:31:27;13.75;;;8.68;;
24273;SDS011;12392;42.678;23.380;2023-04-22T03:33:53;18.02;;;9.32;;
24273;SDS011;12392;42.678;23.380;2023-04-22T03:36:19;15.32;;;8.20;;
24273;SDS011;12392;42.678;23.380;2023-04-22T03:38:45;20.35;;;9.48;;
24273;SDS011;12392;42.678;23.380;2023-04-22T03:41:11;17.13;;;10.52;;
24273;SDS011;12392;42.678;23.380;2023-04-22T03:43:37;18.23;;;11.35;;
24273;SDS011;12392;42.678;23.380;2023-04-22T03:46:02;20.05;;;11.07;;
24273;SDS011;12392;42.678;23.380;2023-04-22T03:48:28;18.30;;;10.55;;
24273;SDS011;12392;42.678;23.380;2023-04-22T03:50:58;17.75;;;9.48;;
24273;SDS011;12392;42.678;23.380;2023-04-22T03:53:24;23.13;;;8.45;;
24273;SDS011;12392;42.678;23.380;2023-04-22T03:55:50;21.33;;;12.18;;
24273;SDS011;12392;42.678;23.380;2023-04-22T03:58:15;25.27;;;13.23;;
24273;SDS011;12392;42.678;23.380;2023-04-22T04:00:41;19.63;;;13.25;;
24273;SDS011;12392;42.678;23.380;2023-04-22T04:03:07;18.80;;;10.52;;
24273;SDS011;12392;42.678;23.380;2023-04-22T04:05:33;18.08;;;11.00;;
24273;SDS011;12392;42.678;23.380;2023-04-22T04:07:58;23.23;;;11.60;;
24273;SDS011;12392;42.678;23.380;2023-04-22T04:10:24;23.02;;;12.68;;
24273;SDS011;12392;42.678;23.380;2023-04-22T04:12:50;22.83;;;13.88;;
24273;SDS011;12392;42.678;23.380;2023-04-22T04:15:16;26.08;;;14.60;;
24273;SDS011;12392;42.678;23.380;2023-04-22T04:17:43;26.25;;;13.82;;
24273;SDS011;12392;42.678;23.380;2023-04-22T04:20:10;32.65;;;13.70;;
24273;SDS011;12392;42.678;23.380;2023-04-22T04:22:36;26.52;;;13.82;;
24273;SDS011;12392;42.678;23.380;2023-04-22T04:25:02;26.20;;;14.50;;
24273;SDS011;12392;42.678;23.380;2023-04-22T04:27:28;29.92;;;15.88;;
24273;SDS011;12392;42.678;23.380;2023-04-22T04:29:54;35.30;;;18.48;;
24273;SDS011;12392;42.678;23.380;2023-04-22T04:32:20;34.20;;;20.45;;
24273;SDS011;12392;42.678;23.380;2023-04-22T04:34:46;44.05;;;23.10;;
24273;SDS011;12392;42.678;23.380;2023-04-22T04:37:12;37.70;;;22.08;;
24273;SDS011;12392;42.678;23.380;2023-04-22T04:39:38;41.92;;;22.00;;
24273;SDS011;12392;42.678;23.380;2023-04-22T04:42:03;36.33;;;22.45;;
24273;SDS011;12392;42.678;23.380;2023-04-22T04:44:29;26.77;;;15.68;;
24273;SDS011;12392;42.678;23.380;2023-04-22T04:46:55;22.33;;;13.15;;
24273;SDS011;12392;42.678;23.380;2023-04-22T04:49:22;21.00;;;11.52;;
24273;SDS011;12392;42.678;23.380;2023-04-22T04:51:48;18.90;;;9.98;;
24273;SDS011;12392;42.678;23.380;2023-04-22T04:54:14;19.92;;;9.43;;
24273;SDS011;12392;42.678;23.380;2023-04-22T04:56:40;16.42;;;9.65;;
24273;SDS011;12392;42.678;23.380;2023-04-22T04:59:06;16.10;;;9.93;;
24273;SDS011;12392;42.678;23.380;2023-04-22T05:01:31;17.90;;;10.10;;
24273;SDS011;12392;42.678;23.380;2023-04-22T05:03:57;17.95;;;10.77;;
24273;SDS011;12392;42.678;23.380;2023-04-22T05:06:23;15.23;;;10.23;;
24273;SDS011;12392;42.678;23.380;2023-04-22T05:08:48;18.13;;;9.85;;
24273;SDS011;12392;42.678;23.380;2023-04-22T05:11:14;15.88;;;10.25;;
24273;SDS011;12392;42.678;23.380;2023-04-22T05:13:39;20.08;;;11.35;;
24273;SDS011;12392;42.678;23.380;2023-04-22T05:16:05;18.00;;;10.07;;
24273;SDS011;12392;42.678;23.380;2023-04-22T05:18:31;14.40;;;10.73;;
24273;SDS011;12392;42.678;23.380;2023-04-22T05:20:56;13.02;;;8.15;;
24273;SDS011;12392;42.678;23.380;2023-04-22T05:23:23;12.20;;;8.18;;
24273;SDS011;12392;42.678;23.380;2023-04-22T05:25:50;13.10;;;7.90;;
24273;SDS011;12392;42.678;23.380;2023-04-22T05:28:15;11.38;;;7.70;;
24273;SDS011;12392;42.678;23.380;2023-04-22T05:30:41;14.32;;;7.10;;
24273;SDS011;12392;42.678;23.380;2023-04-22T05:33:07;12.95;;;7.72;;
24273;SDS011;12392;42.678;23.380;2023-04-22T05:35:33;13.73;;;7.35;;
24273;SDS011;12392;42.678;23.380;2023-04-22T05:37:59;14.98;;;7.93;;
24273;SDS011;12392;42.678;23.380;2023-04-22T05:40:25;12.65;;;7.80;;
24273;SDS011;12392;42.678;23.380;2023-04-22T05:42:51;16.05;;;7.97;;
24273;SDS011;12392;42.678;23.380;2023-04-22T05:45:17;11.02;;;7.32;;
24273;SDS011;12392;42.678;23.380;2023-04-22T05:47:42;14.40;;;8.63;;
24273;SDS011;12392;42.678;23.380;2023-04-22T05:50:08;13.05;;;7.93;;
24273;SDS011;12392;42.678;23.380;2023-04-22T05:52:34;15.18;;;7.07;;
24273;SDS011;12392;42.678;23.380;2023-04-22T05:55:00;11.40;;;7.93;;
24273;SDS011;12392;42.678;23.380;2023-04-22T05:57:25;12.55;;;7.95;;
24273;SDS011;12392;42.678;23.380;2023-04-22T05:59:51;12.30;;;7.90;;
24273;SDS011;12392;42.678;23.380;2023-04-22T06:02:17;9.43;;;6.63;;
24273;SDS011;12392;42.678;23.380;2023-04-22T06:04:43;11.63;;;7.85;;
24273;SDS011;12392;42.678;23.380;2023-04-22T06:07:08;24.63;;;15.82;;
24273;SDS011;12392;42.678;23.380;2023-04-22T06:09:34;21.38;;;12.10;;
24273;SDS011;12392;42.678;23.380;2023-04-22T06:12:00;16.95;;;7.90;;
24273;SDS011;12392;42.678;23.380;2023-04-22T06:14:26;10.15;;;6.53;;
24273;SDS011;12392;42.678;23.380;2023-04-22T06:16:52;12.93;;;6.75;;
24273;SDS011;12392;42.678;23.380;2023-04-22T06:19:18;12.55;;;6.82;;
24273;SDS011;12392;42.678;23.380;2023-04-22T06:21:44;10.23;;;7.07;;
24273;SDS011;12392;42.678;23.380;2023-04-22T06:24:10;13.32;;;7.65;;
24273;SDS011;12392;42.678;23.380;2023-04-22T06:26:36;11.90;;;7.43;;
24273;SDS011;12392;42.678;23.380;2023-04-22T06:29:02;15.23;;;7.88;;
24273;SDS011;12392;42.678;23.380;2023-04-22T06:31:29;13.82;;;7.47;;
24273;SDS011;12392;42.678;23.380;2023-04-22T06:33:56;13.10;;;8.35;;
24273;SDS011;12392;42.678;23.380;2023-04-22T06:36:22;14.38;;;9.18;;
24273;SDS011;12392;42.678;23.380;2023-04-22T06:38:48;11.40;;;7.55;;
24273;SDS011;12392;42.678;23.380;2023-04-22T06:41:14;10.93;;;7.13;;
24273;SDS011;12392;42.678;23.380;2023-04-22T06:43:40;11.70;;;8.00;;
24273;SDS011;12392;42.678;23.380;2023-04-22T06:46:06;16.65;;;9.30;;
24273;SDS011;12392;42.678;23.380;2023-04-22T06:48:31;10.20;;;7.55;;
24273;SDS011;12392;42.678;23.380;2023-04-22T06:50:57;11.73;;;7.43;;
24273;SDS011;12392;42.678;23.380;2023-04-22T06:53:23;10.07;;;6.90;;
24273;SDS011;12392;42.678;23.380;2023-04-22T06:55:48;10.27;;;7.55;;
24273;SDS011;12392;42.678;23.380;2023-04-22T06:58:14;8.40;;;5.95;;
24273;SDS011;12392;42.678;23.380;2023-04-22T07:00:40;7.45;;;5.30;;
24273;SDS011;12392;42.678;23.380;2023-04-22T07:03:06;7.32;;;5.95;;
24273;SDS011;12392;42.678;23.380;2023-04-22T07:05:31;10.48;;;5.95;;
24273;SDS011;12392;42.678;23.380;2023-04-22T07:07:57;12.20;;;7.00;;
24273;SDS011;12392;42.678;23.380;2023-04-22T07:10:23;11.15;;;7.53;;
24273;SDS011;12392;42.678;23.380;2023-04-22T07:12:50;6.82;;;5.45;;
24273;SDS011;12392;42.678;23.380;2023-04-22T07:15:15;8.02;;;4.60;;
24273;SDS011;12392;42.678;23.380;2023-04-22T07:17:41;8.80;;;6.70;;
24273;SDS011;12392;42.678;23.380;2023-04-22T07:20:07;11.02;;;5.45;;
24273;SDS011;12392;42.678;23.380;2023-04-22T07:22:33;8.48;;;4.32;;
24273;SDS011;12392;42.678;23.380;2023-04-22T07:24:59;11.40;;;7.88;;
24273;SDS011;12392;42.678;23.380;2023-04-22T07:27:24;22.17;;;14.40;;
24273;SDS011;12392;42.678;23.380;2023-04-22T07:29:50;9.35;;;6.65;;
24273;SDS011;12392;42.678;23.380;2023-04-22T07:32:16;16.38;;;8.85;;
24273;SDS011;12392;42.678;23.380;2023-04-22T07:34:41;13.00;;;8.60;;
24273;SDS011;12392;42.678;23.380;2023-04-22T07:37:07;10.85;;;7.30;;
24273;SDS011;12392;42.678;23.380;2023-04-22T07:39:33;15.23;;;10.82;;
24273;SDS011;12392;42.678;23.380;2023-04-22T07:41:59;20.77;;;16.35;;
24273;SDS011;12392;42.678;23.380;2023-04-22T07:44:26;17.25;;;12.85;;
24273;SDS011;12392;42.678;23.380;2023-04-22T07:46:51;15.73;;;11.73;;
24273;SDS011;12392;42.678;23.380;2023-04-22T07:49:18;18.38;;;11.98;;
24273;SDS011;12392;42.678;23.380;2023-04-22T07:51:44;18.38;;;12.35;;
24273;SDS011;12392;42.678;23.380;2023-04-22T07:54:10;16.83;;;9.60;;
24273;SDS011;12392;42.678;23.380;2023-04-22T07:56:35;19.58;;;13.85;;
24273;SDS011;12392;42.678;23.380;2023-04-22T07:59:01;6.22;;;4.38;;
24273;SDS011;12392;42.678;23.380;2023-04-22T08:01:27;5.60;;;4.38;;
24273;SDS011;12392;42.678;23.380;2023-04-22T08:03:53;7.90;;;6.22;;
24273;SDS011;12392;42.678;23.380;2023-04-22T08:06:19;9.82;;;7.60;;
24273;SDS011;12392;42.678;23.380;2023-04-22T08:08:44;12.27;;;8.85;;
24273;SDS011;12392;42.678;23.380;2023-04-22T08:11:10;8.02;;;6.82;;
24273;SDS011;12392;42.678;23.380;2023-04-22T08:13:36;9.23;;;7.38;;
24273;SDS011;12392;42.678;23.380;2023-04-22T08:16:02;10.25;;;7.30;;
24273;SDS011;12392;42.678;23.380;2023-04-22T08:18:28;15.73;;;10.10;;
24273;SDS011;12392;42.678;23.380;2023-04-22T08:20:54;17.17;;;12.43;;
24273;SDS011;12392;42.678;23.380;2023-04-22T08:23:19;17.27;;;10.55;;
24273;SDS011;12392;42.678;23.380;2023-04-22T08:25:46;10.55;;;7.30;;
24273;SDS011;12392;42.678;23.380;2023-04-22T08:28:12;7.68;;;4.90;;
24273;SDS011;12392;42.678;23.380;2023-04-22T08:30:38;9.23;;;5.50;;
24273;SDS011;12392;42.678;23.380;2023-04-22T08:33:04;9.27;;;6.53;;
24273;SDS011;12392;42.678;23.380;2023-04-22T08:35:29;7.85;;;5.68;;
24273;SDS011;12392;42.678;23.380;2023-04-22T08:37:55;10.80;;;7.43;;
24273;SDS011;12392;42.678;23.380;2023-04-22T08:40:21;12.63;;;5.25;;
24273;SDS011;12392;42.678;23.380;2023-04-22T08:42:46;9.43;;;5.60;;
24273;SDS011;12392;42.678;23.380;2023-04-22T08:45:12;8.80;;;5.25;;
24273;SDS011;12392;42.678;23.380;2023-04-22T08:47:38;8.20;;;5.45;;
24273;SDS011;12392;42.678;23.380;2023-04-22T08:50:05;7.85;;;4.85;;
24273;SDS011;12392;42.678;23.380;2023-04-22T08:52:33;6.43;;;4.68;;
24273;SDS011;12392;42.678;23.380;2023-04-22T08:54:59;9.60;;;4.00;;
24273;SDS011;12392;42.678;23.380;2023-04-22T08:57:25;3.67;;;2.95;;
24273;SDS011;12392;42.678;23.380;2023-04-22T08:59:51;5.72;;;3.00;;
24273;SDS011;12392;42.678;23.380;2023-04-22T09:02:19;8.93;;;4.57;;
24273;SDS011;12392;42.678;23.380;2023-04-22T09:04:46;6.25;;;3.17;;
24273;SDS011;12392;42.678;23.380;2023-04-22T09:07:23;7.55;;;3.45;;
24273;SDS011;12392;42.678;23.380;2023-04-22T09:09:51;7.50;;;3.25;;
24273;SDS011;12392;42.678;23.380;2023-04-22T09:12:21;5.85;;;3.10;;
24273;SDS011;12392;42.678;23.380;2023-04-22T09:14:47;17.63;;;4.20;;
24273;SDS011;12392;42.678;23.380;2023-04-22T09:17:16;5.47;;;3.15;;
24273;SDS011;12392;42.678;23.380;2023-04-22T09:19:55;4.30;;;3.05;;
24273;SDS011;12392;42.678;23.380;2023-04-22T09:22:25;6.53;;;3.00;;
24273;SDS011;12392;42.678;23.380;2023-04-22T09:24:52;8.52;;;3.50;;
24273;SDS011;12392;42.678;23.380;2023-04-22T09:27:18;5.60;;;3.08;;
24273;SDS011;12392;42.678;23.380;2023-04-22T09:29:49;6.68;;;3.38;;
24273;SDS011;12392;42.678;23.380;2023-04-22T09:32:15;3.17;;;2.58;;
24273;SDS011;12392;42.678;23.380;2023-04-22T09:34:49;3.83;;;2.65;;
24273;SDS011;12392;42.678;23.380;2023-04-22T09:37:19;7.15;;;3.20;;
24273;SDS011;12392;42.678;23.380;2023-04-22T09:39:54;10.75;;;3.72;;
24273;SDS011;12392;42.678;23.380;2023-04-22T09:42:20;6.93;;;3.20;;
24273;SDS011;12392;42.678;23.380;2023-04-22T09:44:46;5.53;;;2.53;;
24273;SDS011;12392;42.678;23.380;2023-04-22T09:47:19;5.88;;;3.38;;
24273;SDS011;12392;42.678;23.380;2023-04-22T09:49:46;7.40;;;3.63;;
24273;SDS011;12392;42.678;23.380;2023-04-22T09:52:21;8.18;;;3.17;;
24273;SDS011;12392;42.678;23.380;2023-04-22T09:54:53;6.80;;;3.63;;
24273;SDS011;12392;42.678;23.380;2023-04-22T09:57:19;8.75;;;1.95;;
24273;SDS011;12392;42.678;23.380;2023-04-22T09:59:45;2.53;;;1.67;;
24273;SDS011;12392;42.678;23.380;2023-04-22T10:02:11;2.25;;;1.08;;
24273;SDS011;12392;42.678;23.380;2023-04-22T10:04:38;7.78;;;1.40;;
24273;SDS011;12392;42.678;23.380;2023-04-22T10:07:04;2.92;;;1.30;;
24273;SDS011;12392;42.678;23.380;2023-04-22T10:09:30;1.95;;;1.05;;
24273;SDS011;12392;42.678;23.380;2023-04-22T10:11:58;5.68;;;2.85;;
24273;SDS011;12392;42.678;23.380;2023-04-22T10:14:25;2.25;;;1.42;;
24273;SDS011;12392;42.678;23.380;2023-04-22T10:16:53;1.13;;;1.02;;
24273;SDS011;12392;42.678;23.380;2023-04-22T10:19:27;0.90;;;0.90;;
24273;SDS011;12392;42.678;23.380;2023-04-22T10:21:54;9.32;;;1.02;;
24273;SDS011;12392;42.678;23.380;2023-04-22T10:24:24;3.25;;;1.00;;
24273;SDS011;12392;42.678;23.380;2023-04-22T10:26:55;3.97;;;0.98;;
24273;SDS011;12392;42.678;23.380;2023-04-22T10:29:22;3.60;;;1.13;;
24273;SDS011;12392;42.678;23.380;2023-04-22T10:34:30;3.90;;;2.65;;
24273;SDS011;12392;42.678;23.380;2023-04-22T10:37:09;3.47;;;2.30;;
24273;SDS011;12392;42.678;23.380;2023-04-22T10:39:35;0.75;;;0.57;;
24273;SDS011;12392;42.678;23.380;2023-04-22T10:44:44;1.33;;;0.85;;
24273;SDS011;12392;42.678;23.380;2023-04-22T10:47:10;1.73;;;1.00;;
24273;SDS011;12392;42.678;23.380;2023-04-22T10:49:36;4.15;;;1.30;;
24273;SDS011;12392;42.678;23.380;2023-04-22T10:52:03;1.00;;;0.75;;
24273;SDS011;12392;42.678;23.380;2023-04-22T10:57:10;3.38;;;1.60;;
24273;SDS011;12392;42.678;23.380;2023-04-22T10:59:47;3.95;;;1.77;;
24273;SDS011;12392;42.678;23.380;2023-04-22T11:02:17;5.25;;;1.45;;
24273;SDS011;12392;42.678;23.380;2023-04-22T11:05:17;2.28;;;1.10;;
24273;SDS011;12392;42.678;23.380;2023-04-22T11:07:46;3.13;;;1.30;;
24273;SDS011;12392;42.678;23.380;2023-04-22T11:10:29;1.45;;;0.90;;
24273;SDS011;12392;42.678;23.380;2023-04-22T11:13:15;2.92;;;0.90;;
24273;SDS011;12392;42.678;23.380;2023-04-22T11:15:43;0.93;;;0.80;;
24273;SDS011;12392;42.678;23.380;2023-04-22T11:18:19;1.40;;;1.13;;
24273;SDS011;12392;42.678;23.380;2023-04-22T11:20:48;0.70;;;0.70;;
24273;SDS011;12392;42.678;23.380;2023-04-22T11:23:24;0.80;;;0.80;;
24273;SDS011;12392;42.678;23.380;2023-04-22T11:25:58;2.03;;;0.80;;
24273;SDS011;12392;42.678;23.380;2023-04-22T11:28:26;1.88;;;0.82;;
24273;SDS011;12392;42.678;23.380;2023-04-22T11:30:52;0.75;;;0.70;;
24273;SDS011;12392;42.678;23.380;2023-04-22T11:33:25;0.57;;;0.40;;
24273;SDS011;12392;42.678;23.380;2023-04-22T11:35:50;0.60;;;0.60;;
24273;SDS011;12392;42.678;23.380;2023-04-22T11:38:16;1.00;;;0.63;;
24273;SDS011;12392;42.678;23.380;2023-04-22T11:40:42;1.08;;;0.70;;
24273;SDS011;12392;42.678;23.380;2023-04-22T11:43:09;0.55;;;0.50;;
24273;SDS011;12392;42.678;23.380;2023-04-22T11:45:36;1.08;;;0.98;;
24273;SDS011;12392;42.678;23.380;2023-04-22T11:48:03;2.15;;;0.70;;
24273;SDS011;12392;42.678;23.380;2023-04-22T11:50:31;1.08;;;0.80;;
24273;SDS011;12392;42.678;23.380;2023-04-22T11:55:35;0.93;;;0.90;;
24273;SDS011;12392;42.678;23.380;2023-04-22T11:58:10;1.90;;;0.80;;
24273;SDS011;12392;42.678;23.380;2023-04-22T12:00:43;3.00;;;0.95;;
24273;SDS011;12392;42.678;23.380;2023-04-22T12:03:15;2.40;;;0.95;;
24273;SDS011;12392;42.678;23.380;2023-04-22T12:05:45;1.92;;;1.08;;
24273;SDS011;12392;42.678;23.380;2023-04-22T12:08:35;0.80;;;0.80;;
24273;SDS011;12392;42.678;23.380;2023-04-22T12:11:06;4.00;;;1.30;;
24273;SDS011;12392;42.678;23.380;2023-04-22T12:13:40;1.40;;;1.08;;
24273;SDS011;12392;42.678;23.380;2023-04-22T12:16:11;1.40;;;1.00;;
24273;SDS011;12392;42.678;23.380;2023-04-22T12:18:40;1.65;;;1.10;;
24273;SDS011;12392;42.678;23.380;2023-04-22T12:21:12;3.20;;;1.23;;
24273;SDS011;12392;42.678;23.380;2023-04-22T12:23:41;2.45;;;1.25;;
24273;SDS011;12392;42.678;23.380;2023-04-22T12:26:07;1.98;;;1.00;;
24273;SDS011;12392;42.678;23.380;2023-04-22T12:28:33;2.10;;;1.20;;
24273;SDS011;12392;42.678;23.380;2023-04-22T12:31:00;2.95;;;1.27;;
24273;SDS011;12392;42.678;23.380;2023-04-22T12:33:25;4.10;;;1.10;;
24273;SDS011;12392;42.678;23.380;2023-04-22T12:35:51;7.30;;;2.00;;
24273;SDS011;12392;42.678;23.380;2023-04-22T12:38:17;2.13;;;1.52;;
24273;SDS011;12392;42.678;23.380;2023-04-22T12:40:43;2.58;;;1.90;;
24273;SDS011;12392;42.678;23.380;2023-04-22T12:43:09;1.50;;;1.40;;
24273;SDS011;12392;42.678;23.380;2023-04-22T12:45:34;4.47;;;1.38;;
24273;SDS011;12392;42.678;23.380;2023-04-22T12:48:00;2.53;;;1.55;;
24273;SDS011;12392;42.678;23.380;2023-04-22T12:50:26;5.05;;;2.22;;
24273;SDS011;12392;42.678;23.380;2023-04-22T12:52:52;5.20;;;1.77;;
24273;SDS011;12392;42.678;23.380;2023-04-22T12:55:18;2.05;;;1.20;;
24273;SDS011;12392;42.678;23.380;2023-04-22T12:57:46;3.50;;;1.38;;
24273;SDS011;12392;42.678;23.380;2023-04-22T13:00:12;5.13;;;1.50;;
24273;SDS011;12392;42.678;23.380;2023-04-22T13:02:42;3.63;;;1.42;;
24273;SDS011;12392;42.678;23.380;2023-04-22T13:05:09;2.05;;;1.13;;
24273;SDS011;12392;42.678;23.380;2023-04-22T13:07:35;1.58;;;1.13;;
24273;SDS011;12392;42.678;23.380;2023-04-22T13:10:02;1.40;;;1.00;;
24273;SDS011;12392;42.678;23.380;2023-04-22T13:12:29;2.75;;;1.02;;
24273;SDS011;12392;42.678;23.380;2023-04-22T13:14:54;2.72;;;1.13;;
24273;SDS011;12392;42.678;23.380;2023-04-22T13:17:20;2.53;;;1.23;;
24273;SDS011;12392;42.678;23.380;2023-04-22T13:19:49;1.65;;;0.90;;
24273;SDS011;12392;42.678;23.380;2023-04-22T13:22:15;1.27;;;1.10;;
24273;SDS011;12392;42.678;23.380;2023-04-22T13:24:41;1.77;;;1.23;;
24273;SDS011;12392;42.678;23.380;2023-04-22T13:27:07;1.35;;;1.00;;
24273;SDS011;12392;42.678;23.380;2023-04-22T13:29:33;3.92;;;0.98;;
24273;SDS011;12392;42.678;23.380;2023-04-22T13:31:59;2.15;;;1.02;;
24273;SDS011;12392;42.678;23.380;2023-04-22T13:34:25;0.93;;;0.70;;
24273;SDS011;12392;42.678;23.380;2023-04-22T13:36:51;3.22;;;1.00;;
24273;SDS011;12392;42.678;23.380;2023-04-22T13:39:16;3.63;;;0.80;;
24273;SDS011;12392;42.678;23.380;2023-04-22T13:41:43;1.23;;;0.88;;
24273;SDS011;12392;42.678;23.380;2023-04-22T13:44:10;2.47;;;1.00;;
24273;SDS011;12392;42.678;23.380;2023-04-22T13:46:36;0.93;;;0.90;;
24273;SDS011;12392;42.678;23.380;2023-04-22T13:49:03;1.92;;;0.80;;
24273;SDS011;12392;42.678;23.380;2023-04-22T13:51:29;4.68;;;1.10;;
24273;SDS011;12392;42.678;23.380;2023-04-22T13:53:56;1.13;;;0.73;;
24273;SDS011;12392;42.678;23.380;2023-04-22T13:56:22;2.60;;;1.05;;
24273;SDS011;12392;42.678;23.380;2023-04-22T13:58:49;2.78;;;0.82;;
24273;SDS011;12392;42.678;23.380;2023-04-22T14:01:15;0.95;;;0.80;;
24273;SDS011;12392;42.678;23.380;2023-04-22T14:03:41;2.00;;;0.95;;
24273;SDS011;12392;42.678;23.380;2023-04-22T14:06:07;1.13;;;0.70;;
24273;SDS011;12392;42.678;23.380;2023-04-22T14:08:33;0.77;;;0.73;;
24273;SDS011;12392;42.678;23.380;2023-04-22T14:10:59;2.53;;;0.80;;
24273;SDS011;12392;42.678;23.380;2023-04-22T14:13:26;1.27;;;1.10;;
24273;SDS011;12392;42.678;23.380;2023-04-22T14:15:52;2.95;;;1.80;;
24273;SDS011;12392;42.678;23.380;2023-04-22T14:18:18;6.45;;;2.17;;
24273;SDS011;12392;42.678;23.380;2023-04-22T14:20:46;2.22;;;0.85;;
24273;SDS011;12392;42.678;23.380;2023-04-22T14:23:11;1.30;;;1.20;;
24273;SDS011;12392;42.678;23.380;2023-04-22T14:25:37;3.47;;;1.52;;
24273;SDS011;12392;42.678;23.380;2023-04-22T14:28:03;1.63;;;0.98;;
24273;SDS011;12392;42.678;23.380;2023-04-22T14:30:28;5.47;;;1.27;;
24273;SDS011;12392;42.678;23.380;2023-04-22T14:32:54;1.45;;;1.17;;